Time;durP1;ratioP1;P1;durP2;ratioP2;P2;SDS_P1;SDS_P2;PMS_P1;PMS_P2;Temp;Humidity;BMP_temperature;BMP_pressure;BME280_temperature;BME280_humidity;BME280_pressure;Samples;Min_cycle;Max_cycle;Signal;HPM_P1;HPM_P2
2021/03/27 00:01:48;;;;;;;;;;;23.60;34.20;;;;;;1498832;78;1255;-65
2021/03/27 00:03:52;;;;;;;;;;;23.50;34.20;;;;;;1496161;77;1874;-62
2021/03/27 00:06:11;;;;;;;;;;;23.60;34.30;;;;;;1524796;75;1068;-63
2021/03/27 00:08:18;;;;;;;;;;;23.60;34.40;;;;;;1526035;76;791;-63
2021/03/27 00:10:22;;;;;;;;;;;23.60;34.40;;;;;;1527198;76;753;-63
2021/03/27 00:12:28;;;;;;;;;;;23.50;34.50;;;;;;1531945;76;1157;-64
2021/03/27 00:14:34;;;;;;;;;;;23.60;34.40;;;;;;1532829;76;746;-63
2021/03/27 00:16:41;;;;;;;;;;;23.60;34.40;;;;;;1525833;76;757;-63
2021/03/27 00:18:56;;;;;;;;;;;23.50;34.50;;;;;;1516669;76;751;-63
2021/03/27 00:21:03;;;;;;;;;;;23.60;34.40;;;;;;1529659;76;744;-63
2021/03/27 00:23:12;;;;;;;;;;;23.60;34.40;;;;;;1534227;76;1152;-63
2021/03/27 00:25:25;;;;;;;;;;;23.60;34.40;;;;;;1520431;76;1355;-63
2021/03/27 00:27:28;;;;;;;;;;;23.50;34.30;;;;;;1529215;76;816;-64
2021/03/27 00:29:40;;;;;;;;;;;23.60;34.30;;;;;;1527314;76;653;-63
2021/03/27 00:31:44;;;;;;;;;;;23.50;34.40;;;;;;1526684;76;1102;-65
2021/03/27 00:33:47;;;;;;;;;;;23.50;34.40;;;;;;1526857;76;1550;-63
2021/03/27 00:35:51;;;;;;;;;;;23.60;34.40;;;;;;1522915;76;1455;-62
2021/03/27 00:37:53;;;;;;;;;;;23.50;34.40;;;;;;1521171;76;1537;-65
2021/03/27 00:39:59;;;;;;;;;;;23.50;34.50;;;;;;1526709;76;1953;-63
2021/03/27 00:42:05;;;;;;;;;;;23.50;34.40;;;;;;1525442;76;1144;-62
2021/03/27 00:44:08;;;;;;;;;;;23.50;34.40;;;;;;1531260;76;825;-65
2021/03/27 00:46:10;;;;;;;;;;;23.50;34.40;;;;;;1521729;76;759;-64
2021/03/27 00:48:14;;;;;;;;;;;23.50;34.40;;;;;;1525663;76;682;-63
2021/03/27 00:50:17;;;;;;;;;;;23.50;34.30;;;;;;1528863;76;758;-62
2021/03/27 00:52:19;;;;;;;;;;;23.60;34.20;;;;;;1533528;76;1600;-64
2021/03/27 00:54:23;;;;;;;;;;;23.50;34.20;;;;;;1528619;76;741;-63
2021/03/27 00:56:31;;;;;;;;;;;23.50;34.20;;;;;;1527157;76;780;-63
2021/03/27 00:58:37;;;;;;;;;;;23.50;34.20;;;;;;1517795;76;788;-63
2021/03/27 01:00:40;;;;;;;;;;;23.50;34.20;;;;;;1525071;76;1965;-64
2021/03/27 01:02:52;;;;;;;;;;;23.50;34.40;;;;;;1533135;76;1229;-64
2021/03/27 01:04:55;;;;;;;;;;;23.50;34.60;;;;;;1522724;76;777;-63
2021/03/27 01:07:01;;;;;;;;;;;23.50;34.60;;;;;;1525533;76;665;-62
2021/03/27 01:09:03;;;;;;;;;;;23.50;34.70;;;;;;1533541;76;975;-63
2021/03/27 01:11:07;;;;;;;;;;;23.50;34.70;;;;;;1526752;76;746;-62
2021/03/27 01:13:10;;;;;;;;;;;23.50;34.70;;;;;;1527193;76;1164;-64
2021/03/27 01:15:13;;;;;;;;;;;23.50;34.60;;;;;;1528262;76;766;-63
2021/03/27 01:17:16;;;;;;;;;;;23.50;34.60;;;;;;1519199;76;808;-68
2021/03/27 01:19:22;;;;;;;;;;;23.50;34.50;;;;;;1523945;76;1956;-63
2021/03/27 01:21:25;;;;;;;;;;;23.50;34.70;;;;;;1523970;76;1678;-63
2021/03/27 01:23:27;;;;;;;;;;;23.50;34.70;;;;;;1525635;76;687;-63
2021/03/27 01:25:29;;;;;;;;;;;23.50;34.80;;;;;;1532757;76;817;-65
2021/03/27 01:27:33;;;;;;;;;;;23.50;34.80;;;;;;1519035;76;752;-63
2021/03/27 01:29:53;;;;;;;;;;;23.50;34.90;;;;;;1518511;76;1039;-63
2021/03/27 01:31:55;;;;;;;;;;;23.50;35.00;;;;;;1525782;76;1158;-63
2021/03/27 01:33:58;;;;;;;;;;;23.50;35.10;;;;;;1530952;76;632;-63
2021/03/27 01:36:11;;;;;;;;;;;23.50;35.20;;;;;;1531273;76;774;-62
2021/03/27 01:38:15;;;;;;;;;;;23.50;35.20;;;;;;1525292;76;721;-62
2021/03/27 01:40:24;;;;;;;;;;;23.50;35.20;;;;;;1523660;76;1924;-63
2021/03/27 01:42:27;;;;;;;;;;;23.50;35.00;;;;;;1528646;76;1578;-62
2021/03/27 01:44:34;;;;;;;;;;;23.50;35.10;;;;;;1528563;76;1578;-61
2021/03/27 01:46:37;;;;;;;;;;;23.50;35.00;;;;;;1524366;76;795;-62
2021/03/27 01:48:46;;;;;;;;;;;23.50;35.00;;;;;;1516229;76;737;-62
2021/03/27 01:50:49;;;;;;;;;;;23.50;34.90;;;;;;1520823;76;781;-62
2021/03/27 01:52:53;;;;;;;;;;;23.60;34.80;;;;;;1532221;76;1196;-63
2021/03/27 01:54:57;;;;;;;;;;;23.50;35.00;;;;;;1542134;76;844;-62
2021/03/27 01:57:09;;;;;;;;;;;23.50;34.90;;;;;;1546281;76;685;-60
2021/03/27 01:59:11;;;;;;;;;;;23.60;35.00;;;;;;1530384;76;1036;-62
2021/03/27 02:01:21;;;;;;;;;;;23.50;35.00;;;;;;1540678;76;1950;-62
2021/03/27 02:03:30;;;;;;;;;;;23.50;35.00;;;;;;1534111;76;1207;-62
2021/03/27 02:05:34;;;;;;;;;;;23.60;35.00;;;;;;1544683;76;741;-63
2021/03/27 02:07:37;;;;;;;;;;;23.50;35.20;;;;;;1530234;76;1439;-64
2021/03/27 02:09:50;;;;;;;;;;;23.60;35.20;;;;;;1541458;76;751;-62
2021/03/27 02:11:59;;;;;;;;;;;23.60;35.20;;;;;;1523512;76;1176;-63
2021/03/27 02:14:02;;;;;;;;;;;23.50;35.20;;;;;;1552023;76;760;-62
2021/03/27 02:16:09;;;;;;;;;;;23.60;35.20;;;;;;1538435;76;758;-63
2021/03/27 02:18:12;;;;;;;;;;;23.60;35.20;;;;;;1519568;76;1092;-64
2021/03/27 02:20:34;;;;;;;;;;;23.60;35.20;;;;;;1529140;76;1942;-63
2021/03/27 02:22:49;;;;;;;;;;;23.60;35.30;;;;;;1525370;76;1506;-64
2021/03/27 02:25:09;;;;;;;;;;;23.60;35.30;;;;;;1529804;76;738;-63
2021/03/27 02:27:13;;;;;;;;;;;23.50;35.30;;;;;;1532569;76;767;-62
2021/03/27 02:29:28;;;;;;;;;;;23.50;35.30;;;;;;1532534;76;784;-63
2021/03/27 02:31:33;;;;;;;;;;;23.60;35.30;;;;;;1530078;76;1117;-63
2021/03/27 02:33:37;;;;;;;;;;;23.60;35.30;;;;;;1536200;76;738;-61
2021/03/27 02:35:52;;;;;;;;;;;23.60;35.40;;;;;;1539100;76;1042;-61
2021/03/27 02:38:02;;;;;;;;;;;23.60;35.20;;;;;;1534279;76;750;-62
2021/03/27 02:40:08;;;;;;;;;;;23.50;35.30;;;;;;1535885;76;1946;-62
2021/03/27 02:42:27;;;;;;;;;;;23.60;35.20;;;;;;1523238;76;1432;-63
2021/03/27 02:44:30;;;;;;;;;;;23.60;35.20;;;;;;1528689;76;756;-62
2021/03/27 02:46:33;;;;;;;;;;;23.60;35.20;;;;;;1529361;76;672;-63
2021/03/27 02:48:43;;;;;;;;;;;23.50;35.20;;;;;;1538126;76;1530;-62
2021/03/27 02:50:46;;;;;;;;;;;23.60;35.00;;;;;;1539616;76;1134;-62
2021/03/27 02:53:06;;;;;;;;;;;23.50;35.10;;;;;;1545139;76;1144;-62
2021/03/27 02:55:09;;;;;;;;;;;23.50;35.00;;;;;;1534276;76;824;-62
2021/03/27 02:57:16;;;;;;;;;;;23.50;35.00;;;;;;1543598;76;735;-62
2021/03/27 02:59:20;;;;;;;;;;;23.50;35.10;;;;;;1531810;76;1125;-60
2021/03/27 03:01:29;;;;;;;;;;;23.50;35.20;;;;;;1545081;76;1923;-62
2021/03/27 03:03:32;;;;;;;;;;;23.50;35.10;;;;;;1539478;76;1160;-62
2021/03/27 03:05:40;;;;;;;;;;;23.50;35.10;;;;;;1528856;76;755;-61
2021/03/27 03:08:00;;;;;;;;;;;23.50;35.10;;;;;;1531305;76;771;-61
2021/03/27 03:10:19;;;;;;;;;;;23.50;35.20;;;;;;1525203;76;760;-62
2021/03/27 03:12:25;;;;;;;;;;;23.50;35.30;;;;;;1544840;76;1145;-61
2021/03/27 03:14:28;;;;;;;;;;;23.50;35.50;;;;;;1525306;76;777;-60
2021/03/27 03:16:31;;;;;;;;;;;23.50;35.50;;;;;;1529705;76;1843;-63
2021/03/27 03:18:46;;;;;;;;;;;23.40;35.20;;;;;;1534774;76;753;-61
2021/03/27 03:20:56;;;;;;;;;;;23.50;35.30;;;;;;1541848;76;1926;-62
2021/03/27 03:22:59;;;;;;;;;;;23.40;35.20;;;;;;1546693;76;1145;-60
2021/03/27 03:25:03;;;;;;;;;;;23.50;35.20;;;;;;1540373;76;1612;-60
2021/03/27 03:27:21;;;;;;;;;;;23.50;35.20;;;;;;1516405;76;1038;-63
2021/03/27 03:29:31;;;;;;;;;;;23.50;35.50;;;;;;1514258;76;657;-62
2021/03/27 03:31:34;;;;;;;;;;;23.50;35.90;;;;;;1522675;76;1161;-63
2021/03/27 03:33:54;;;;;;;;;;;23.50;36.00;;;;;;1526681;76;750;-62
2021/03/27 03:35:57;;;;;;;;;;;23.50;36.00;;;;;;1545391;76;741;-62
2021/03/27 03:38:17;;;;;;;;;;;23.50;36.10;;;;;;1537245;76;780;-62
2021/03/27 03:40:29;;;;;;;;;;;23.50;36.10;;;;;;1533750;76;1940;-62
2021/03/27 03:42:35;;;;;;;;;;;23.50;36.10;;;;;;1562673;71;3134;-62
2021/03/27 03:44:45;;;;;;;;;;;23.40;36.00;;;;;;1613076;72;687;-63
2021/03/27 03:47:05;;;;;;;;;;;23.40;36.00;;;;;;1595532;73;777;-63
2021/03/27 03:49:08;;;;;;;;;;;23.40;36.10;;;;;;1608824;72;764;-62
2021/03/27 03:51:12;;;;;;;;;;;23.40;36.30;;;;;;1608793;72;1073;-63
2021/03/27 03:53:18;;;;;;;;;;;23.30;36.50;;;;;;1587110;72;1760;-62
2021/03/27 03:55:22;;;;;;;;;;;23.20;36.60;;;;;;1567275;75;765;-60
2021/03/27 03:57:31;;;;;;;;;;;23.20;36.80;;;;;;1563886;75;719;-62
2021/03/27 03:59:38;;;;;;;;;;;23.20;36.90;;;;;;1570646;75;691;-62
2021/03/27 04:01:41;;;;;;;;;;;23.20;36.90;;;;;;1561295;75;1943;-63
2021/03/27 04:03:54;;;;;;;;;;;23.20;37.00;;;;;;1570537;74;1226;-64
2021/03/27 04:05:59;;;;;;;;;;;23.20;37.10;;;;;;1565888;74;781;-63
2021/03/27 04:08:05;;;;;;;;;;;23.20;37.10;;;;;;1566831;75;742;-63
2021/03/27 04:10:12;;;;;;;;;;;23.20;37.20;;;;;;1564452;75;1503;-63
2021/03/27 04:12:15;;;;;;;;;;;23.20;37.30;;;;;;1569494;75;1169;-62
2021/03/27 04:14:28;;;;;;;;;;;23.20;37.40;;;;;;1576749;74;742;-64
2021/03/27 04:16:29;;;;;;;;;;;23.20;37.60;;;;;;1573340;75;1049;-62
2021/03/27 04:18:38;;;;;;;;;;;23.20;37.50;;;;;;1564179;74;762;-61
2021/03/27 04:20:53;;;;;;;;;;;23.20;37.40;;;;;;1562657;74;1935;-62
2021/03/27 04:22:59;;;;;;;;;;;23.20;37.40;;;;;;1531248;77;1209;-62
2021/03/27 04:25:02;;;;;;;;;;;23.20;37.40;;;;;;1585245;75;719;-59
2021/03/27 04:27:22;;;;;;;;;;;23.20;37.30;;;;;;1586089;75;1131;-62
2021/03/27 04:29:31;;;;;;;;;;;23.20;37.40;;;;;;1578425;73;761;-63
2021/03/27 04:31:35;;;;;;;;;;;23.20;37.30;;;;;;1580287;73;743;-62
2021/03/27 04:33:54;;;;;;;;;;;23.30;37.40;;;;;;1576106;75;1129;-62
2021/03/27 04:35:57;;;;;;;;;;;23.30;37.30;;;;;;1586150;73;762;-62
2021/03/27 04:38:00;;;;;;;;;;;23.30;37.60;;;;;;1576417;75;684;-62
2021/03/27 04:40:07;;;;;;;;;;;23.30;37.50;;;;;;1577521;73;754;-63
2021/03/27 04:42:16;;;;;;;;;;;23.40;37.60;;;;;;1588667;75;2130;-63
2021/03/27 04:44:20;;;;;;;;;;;23.30;37.30;;;;;;1582928;75;721;-62
2021/03/27 04:46:23;;;;;;;;;;;23.30;37.30;;;;;;1589616;75;636;-62
2021/03/27 04:48:36;;;;;;;;;;;23.30;37.30;;;;;;1579457;75;759;-62
2021/03/27 04:50:45;;;;;;;;;;;23.30;37.20;;;;;;1587940;74;753;-62
2021/03/27 04:53:01;;;;;;;;;;;23.30;37.20;;;;;;1588591;73;1206;-60
2021/03/27 04:55:16;;;;;;;;;;;23.40;37.40;;;;;;1587899;73;759;-63
2021/03/27 04:57:25;;;;;;;;;;;23.40;37.30;;;;;;1514877;75;1011;-62
2021/03/27 04:59:32;;;;;;;;;;;23.40;37.40;;;;;;1588362;75;670;-62
2021/03/27 05:01:36;;;;;;;;;;;23.40;37.30;;;;;;1585811;75;1943;-62
2021/03/27 05:03:39;;;;;;;;;;;23.40;37.30;;;;;;1579823;75;1187;-62
2021/03/27 05:05:43;;;;;;;;;;;23.40;37.30;;;;;;1588158;75;737;-62
2021/03/27 05:07:46;;;;;;;;;;;23.40;37.30;;;;;;1555882;75;1017;-63
2021/03/27 05:09:53;;;;;;;;;;;23.40;37.20;;;;;;1588094;75;814;-62
2021/03/27 05:12:02;;;;;;;;;;;23.40;37.10;;;;;;1584167;75;1229;-62
2021/03/27 05:14:15;;;;;;;;;;;23.40;37.10;;;;;;1585363;75;1743;-60
2021/03/27 05:16:21;;;;;;;;;;;23.50;37.20;;;;;;1586183;75;1713;-60
2021/03/27 05:18:37;;;;;;;;;;;23.40;37.10;;;;;;1578187;75;737;-63
2021/03/27 05:20:39;;;;;;;;;;;23.40;37.10;;;;;;1581451;73;1931;-63
2021/03/27 05:22:48;;;;;;;;;;;23.40;37.00;;;;;;1584082;73;1184;-62
2021/03/27 05:24:52;;;;;;;;;;;23.40;37.10;;;;;;1585411;74;807;-59
2021/03/27 05:26:55;;;;;;;;;;;23.50;37.30;;;;;;1585589;73;1057;-62
2021/03/27 05:28:59;;;;;;;;;;;23.40;37.20;;;;;;1588892;75;1157;-63
2021/03/27 05:31:05;;;;;;;;;;;23.50;37.30;;;;;;1575371;73;1053;-64
2021/03/27 05:33:14;;;;;;;;;;;23.50;37.30;;;;;;1584711;73;1182;-63
2021/03/27 05:35:18;;;;;;;;;;;23.50;37.20;;;;;;1580829;74;742;-63
2021/03/27 05:37:21;;;;;;;;;;;23.50;37.30;;;;;;1581373;73;1825;-62
2021/03/27 05:39:39;;;;;;;;;;;23.50;37.20;;;;;;1583220;74;1066;-62
2021/03/27 05:41:43;;;;;;;;;;;23.50;37.20;;;;;;1582710;74;1938;-60
2021/03/27 05:43:46;;;;;;;;;;;23.50;37.20;;;;;;1582758;73;1249;-63
2021/03/27 05:46:06;;;;;;;;;;;23.50;37.30;;;;;;1539763;75;1024;-62
2021/03/27 05:48:10;;;;;;;;;;;23.50;37.30;;;;;;1584400;73;786;-61
2021/03/27 05:50:19;;;;;;;;;;;23.50;37.40;;;;;;1581963;73;1935;-62
2021/03/27 05:52:23;;;;;;;;;;;23.40;37.20;;;;;;1584205;73;1189;-63
2021/03/27 05:54:43;;;;;;;;;;;23.40;37.30;;;;;;1588929;75;707;-63
2021/03/27 05:57:02;;;;;;;;;;;23.50;37.40;;;;;;1590564;73;758;-64
2021/03/27 05:59:09;;;;;;;;;;;23.50;37.30;;;;;;1587923;74;746;-64
2021/03/27 06:01:25;;;;;;;;;;;23.50;37.20;;;;;;1586490;75;1931;-63
2021/03/27 06:03:34;;;;;;;;;;;23.50;37.20;;;;;;1585762;74;1180;-63
2021/03/27 06:05:44;;;;;;;;;;;23.50;37.40;;;;;;1575054;73;669;-63
2021/03/27 06:08:04;;;;;;;;;;;23.60;37.40;;;;;;1586924;75;818;-63
2021/03/27 06:10:07;;;;;;;;;;;23.60;37.30;;;;;;1587104;75;773;-63
2021/03/27 06:12:16;;;;;;;;;;;23.60;37.40;;;;;;1585551;75;1266;-63
2021/03/27 06:14:20;;;;;;;;;;;23.60;37.30;;;;;;1586985;75;749;-62
2021/03/27 06:16:38;;;;;;;;;;;23.60;37.30;;;;;;1590473;73;748;-61
2021/03/27 06:18:58;;;;;;;;;;;23.60;37.30;;;;;;1583660;73;760;-63
2021/03/27 06:21:01;;;;;;;;;;;23.60;37.30;;;;;;1584920;75;1937;-63
2021/03/27 06:23:08;;;;;;;;;;;23.60;37.30;;;;;;1578860;73;2002;-63
2021/03/27 06:25:23;;;;;;;;;;;23.60;37.60;;;;;;1589561;74;768;-64
2021/03/27 06:27:27;;;;;;;;;;;23.70;37.30;;;;;;1580004;73;761;-64
2021/03/27 06:29:39;;;;;;;;;;;23.70;37.30;;;;;;1583349;75;752;-63
2021/03/27 06:31:43;;;;;;;;;;;23.60;37.10;;;;;;1582830;75;786;-61
2021/03/27 06:34:02;;;;;;;;;;;23.60;37.00;;;;;;1588235;74;1079;-64
2021/03/27 06:36:22;;;;;;;;;;;23.70;36.90;;;;;;1583379;75;734;-64
2021/03/27 06:38:38;;;;;;;;;;;23.70;36.90;;;;;;1573914;73;799;-63
2021/03/27 06:40:57;;;;;;;;;;;23.60;36.60;;;;;;1576496;73;1056;-63
2021/03/27 06:43:13;;;;;;;;;;;23.70;36.60;;;;;;1582165;73;1195;-64
2021/03/27 06:45:30;;;;;;;;;;;23.60;36.40;;;;;;1546360;73;1057;-64
2021/03/27 06:47:34;;;;;;;;;;;23.70;36.50;;;;;;1585802;73;792;-64
2021/03/27 06:49:37;;;;;;;;;;;23.60;36.30;;;;;;1583941;73;795;-64
2021/03/27 06:51:41;;;;;;;;;;;23.60;36.30;;;;;;1580151;75;1101;-63
2021/03/27 06:53:44;;;;;;;;;;;23.60;36.30;;;;;;1591050;73;1600;-64
2021/03/27 06:55:48;;;;;;;;;;;23.60;36.20;;;;;;1588088;75;1514;-64
2021/03/27 06:58:07;;;;;;;;;;;23.60;36.30;;;;;;1585058;75;914;-64
2021/03/27 07:00:11;;;;;;;;;;;23.60;36.30;;;;;;1578968;73;804;-65
2021/03/27 07:02:26;;;;;;;;;;;23.60;36.20;;;;;;1581075;75;1945;-65
2021/03/27 07:04:42;;;;;;;;;;;23.60;36.40;;;;;;1585313;75;1706;-64
2021/03/27 07:06:48;;;;;;;;;;;23.50;36.30;;;;;;1583675;74;1168;-65
2021/03/27 07:08:54;;;;;;;;;;;23.60;36.30;;;;;;1585208;75;776;-65
2021/03/27 07:11:04;;;;;;;;;;;23.60;36.30;;;;;;1584859;75;816;-67
2021/03/27 07:13:13;;;;;;;;;;;23.60;36.40;;;;;;1584129;73;1226;-63
2021/03/27 07:15:35;;;;;;;;;;;23.60;36.30;;;;;;1589557;75;807;-62
2021/03/27 07:17:38;;;;;;;;;;;23.60;36.30;;;;;;1576714;75;750;-66
2021/03/27 07:19:48;;;;;;;;;;;23.70;36.40;;;;;;1579043;75;770;-66
2021/03/27 07:22:07;;;;;;;;;;;23.70;36.20;;;;;;1573298;73;1930;-66
2021/03/27 07:24:11;;;;;;;;;;;23.60;35.80;;;;;;1574877;73;1613;-67
2021/03/27 07:26:18;;;;;;;;;;;23.60;35.50;;;;;;1582689;75;1620;-66
2021/03/27 07:28:21;;;;;;;;;;;23.70;35.50;;;;;;1579520;73;736;-66
2021/03/27 07:30:37;;;;;;;;;;;23.70;35.50;;;;;;1559804;75;930;-65
2021/03/27 07:32:40;;;;;;;;;;;23.80;35.10;;;;;;1586172;73;1173;-64
2021/03/27 07:34:49;;;;;;;;;;;23.80;35.00;;;;;;1582906;75;1567;-65
2021/03/27 07:37:09;;;;;;;;;;;23.80;34.90;;;;;;1583453;75;1592;-65
2021/03/27 07:39:28;;;;;;;;;;;23.70;35.00;;;;;;1578789;75;786;-65
2021/03/27 07:41:35;;;;;;;;;;;23.70;34.90;;;;;;1565788;76;1938;-64
2021/03/27 07:43:47;;;;;;;;;;;23.60;34.80;;;;;;1533415;76;1141;-64
2021/03/27 07:45:59;;;;;;;;;;;23.70;34.90;;;;;;1522537;78;1040;-65
2021/03/27 07:48:03;;;;;;;;;;;23.60;34.80;;;;;;1564569;73;886;-64
2021/03/27 07:50:07;;;;;;;;;;;23.60;34.80;;;;;;1574318;73;724;-64
2021/03/27 07:52:13;;;;;;;;;;;23.60;34.80;;;;;;1573631;73;1207;-65
2021/03/27 07:54:19;;;;;;;;;;;23.60;34.80;;;;;;1569818;73;1640;-63
2021/03/27 07:56:23;;;;;;;;;;;23.50;34.70;;;;;;1567778;73;741;-65
2021/03/27 07:58:29;;;;;;;;;;;23.60;34.80;;;;;;1570803;75;799;-65
2021/03/27 08:00:39;;;;;;;;;;;23.60;34.80;;;;;;1566743;75;1051;-65
2021/03/27 08:02:51;;;;;;;;;;;23.50;34.80;;;;;;1568690;75;1945;-64
2021/03/27 08:05:04;;;;;;;;;;;23.50;34.70;;;;;;1577062;75;745;-66
2021/03/27 08:07:09;;;;;;;;;;;23.50;34.70;;;;;;1572368;75;680;-65
2021/03/27 08:09:19;;;;;;;;;;;23.50;34.80;;;;;;1575219;73;789;-65
2021/03/27 08:11:22;;;;;;;;;;;23.50;34.70;;;;;;1569809;73;747;-62
2021/03/27 08:13:31;;;;;;;;;;;23.50;34.70;;;;;;1573465;73;1660;-65
2021/03/27 08:15:50;;;;;;;;;;;23.50;34.80;;;;;;1575337;73;742;-65
2021/03/27 08:17:56;;;;;;;;;;;23.50;34.70;;;;;;1576984;73;1195;-65
2021/03/27 08:20:00;;;;;;;;;;;23.50;34.70;;;;;;1574686;73;763;-65
2021/03/27 08:22:04;;;;;;;;;;;23.50;34.70;;;;;;1571328;75;1938;-65
2021/03/27 08:24:17;;;;;;;;;;;23.50;34.80;;;;;;1572669;75;790;-64
2021/03/27 08:26:36;;;;;;;;;;;23.50;34.80;;;;;;1565242;75;735;-65
2021/03/27 08:28:56;;;;;;;;;;;23.40;34.70;;;;;;1578189;75;719;-65
2021/03/27 08:31:12;;;;;;;;;;;23.40;34.70;;;;;;1577815;73;685;-64
2021/03/27 08:33:18;;;;;;;;;;;23.40;34.70;;;;;;1576136;73;1166;-64
2021/03/27 08:35:31;;;;;;;;;;;23.50;34.90;;;;;;1577764;74;766;-65
2021/03/27 08:37:37;;;;;;;;;;;23.50;34.90;;;;;;1574631;73;1459;-62
2021/03/27 08:39:46;;;;;;;;;;;23.50;34.80;;;;;;1578690;75;783;-66
2021/03/27 08:41:52;;;;;;;;;;;23.40;34.70;;;;;;1571021;75;1949;-62
2021/03/27 08:43:59;;;;;;;;;;;23.40;34.70;;;;;;1569224;75;688;-64
2021/03/27 08:46:05;;;;;;;;;;;23.50;34.70;;;;;;1575326;73;820;-64
2021/03/27 08:48:24;;;;;;;;;;;23.50;34.70;;;;;;1570478;73;759;-64
2021/03/27 08:50:36;;;;;;;;;;;23.50;34.70;;;;;;1579368;75;1141;-64
2021/03/27 08:52:40;;;;;;;;;;;23.50;34.70;;;;;;1578429;73;1558;-68
2021/03/27 08:54:56;;;;;;;;;;;23.50;33.00;;;;;;1576322;73;745;-68
2021/03/27 08:57:02;;;;;;;;;;;23.60;32.70;;;;;;1578422;75;795;-67
2021/03/27 08:59:09;;;;;;;;;;;23.60;29.10;;;;;;1582247;75;795;-66
2021/03/27 09:01:29;;;;;;;;;;;23.60;28.10;;;;;;1578993;75;752;-64
2021/03/27 09:03:32;;;;;;;;;;;23.70;30.00;;;;;;1564042;75;1126;-65
2021/03/27 09:05:36;;;;;;;;;;;23.70;30.70;;;;;;1572690;73;769;-65
2021/03/27 09:07:45;;;;;;;;;;;23.60;30.70;;;;;;1564182;73;1533;-62
2021/03/27 09:09:49;;;;;;;;;;;23.60;31.10;;;;;;1577287;73;721;-64
2021/03/27 09:11:52;;;;;;;;;;;23.50;31.50;;;;;;1577588;73;1234;-64
2021/03/27 09:13:56;;;;;;;;;;;23.50;31.80;;;;;;1574102;75;1586;-64
2021/03/27 09:16:16;;;;;;;;;;;23.50;32.00;;;;;;1583599;73;749;-68
2021/03/27 09:18:25;;;;;;;;;;;23.50;32.30;;;;;;1578146;73;796;-63
2021/03/27 09:20:41;;;;;;;;;;;23.60;32.30;;;;;;1568691;73;1540;-63
2021/03/27 09:22:47;;;;;;;;;;;23.60;32.30;;;;;;1580033;73;1923;-64
2021/03/27 09:24:57;;;;;;;;;;;23.50;32.40;;;;;;1579608;75;806;-63
2021/03/27 09:27:09;;;;;;;;;;;23.60;32.50;;;;;;1563153;74;647;-64
2021/03/27 09:29:13;;;;;;;;;;;23.50;32.60;;;;;;1560313;74;730;-64
2021/03/27 09:31:16;;;;;;;;;;;23.50;32.70;;;;;;1570336;75;794;-64
2021/03/27 09:33:20;;;;;;;;;;;23.50;32.80;;;;;;1561147;74;1090;-65
2021/03/27 09:35:29;;;;;;;;;;;23.50;32.80;;;;;;1567377;74;761;-63
2021/03/27 09:37:41;;;;;;;;;;;23.60;32.70;;;;;;1572248;74;797;-61
2021/03/27 09:39:51;;;;;;;;;;;23.60;32.70;;;;;;1569275;74;745;-63
2021/03/27 09:42:00;;;;;;;;;;;23.60;32.80;;;;;;1570732;74;1942;-62
2021/03/27 09:44:22;;;;;;;;;;;23.60;32.70;;;;;;1589991;71;216011;-56
2021/03/27 09:46:42;;;;;;;;;;;23.60;32.80;;;;;;1553900;74;749;-58
2021/03/27 09:48:45;;;;;;;;;;;23.60;32.80;;;;;;1621379;71;602;-58
2021/03/27 09:50:58;;;;;;;;;;;23.60;32.90;;;;;;1623637;71;768;-56
2021/03/27 09:53:04;;;;;;;;;;;23.60;32.90;;;;;;1612694;71;1578;-54
2021/03/27 09:55:17;;;;;;;;;;;23.60;32.90;;;;;;1606103;72;808;-55
2021/03/27 09:57:20;;;;;;;;;;;23.60;33.00;;;;;;1604338;71;741;-56
2021/03/27 09:59:24;;;;;;;;;;;23.60;33.00;;;;;;1614409;71;735;-54
2021/03/27 10:01:27;;;;;;;;;;;23.60;33.00;;;;;;1615380;71;1122;-56
2021/03/27 10:03:30;;;;;;;;;;;23.70;33.10;;;;;;1615321;71;1950;-57
2021/03/27 10:05:50;;;;;;;;;;;23.70;33.20;;;;;;1622472;71;792;-55
2021/03/27 10:07:54;;;;;;;;;;;23.60;33.00;;;;;;1617602;71;685;-54
2021/03/27 10:10:04;;;;;;;;;;;23.70;33.10;;;;;;1625553;71;1466;-55
2021/03/27 10:12:11;;;;;;;;;;;23.60;33.10;;;;;;1619513;71;1801;-58
2021/03/27 10:14:23;;;;;;;;;;;23.60;33.10;;;;;;1626658;71;737;-57
2021/03/27 10:16:26;;;;;;;;;;;23.60;33.10;;;;;;1635609;71;745;-57
2021/03/27 10:18:40;;;;;;;;;;;23.60;33.10;;;;;;1625283;71;757;-57
2021/03/27 10:20:43;;;;;;;;;;;23.60;33.10;;;;;;1623729;71;806;-57
2021/03/27 10:22:47;;;;;;;;;;;23.60;33.10;;;;;;1626254;70;1935;-54
2021/03/27 10:24:56;;;;;;;;;;;23.60;33.10;;;;;;1599953;72;1361;-56
2021/03/27 10:27:04;;;;;;;;;;;23.60;33.20;;;;;;1630326;71;1607;-56
2021/03/27 10:30:02;;;;;;;;;;;23.60;33.20;;;;;;1628722;71;823;-55
2021/03/27 10:31:22;;;;;;;;;;;23.60;33.20;;;;;;1597654;71;1374;-57
2021/03/27 10:33:42;;;;;;;;;;;23.60;33.20;;;;;;1625756;71;1162;-55
2021/03/27 10:35:45;;;;;;;;;;;23.60;33.10;;;;;;1621517;71;738;-54
2021/03/27 10:38:07;;;;;;;;;;;23.60;33.20;;;;;;1631793;71;1166;-57
2021/03/27 10:40:13;;;;;;;;;;;23.60;33.20;;;;;;1628315;71;804;-59
2021/03/27 10:42:20;;;;;;;;;;;23.60;33.20;;;;;;1626994;71;1953;-56
2021/03/27 10:44:40;;;;;;;;;;;23.60;33.20;;;;;;1629398;71;757;-57
2021/03/27 10:46:43;;;;;;;;;;;23.60;33.30;;;;;;1619925;71;790;-56
2021/03/27 10:48:50;;;;;;;;;;;23.60;33.10;;;;;;1615430;71;721;-54
2021/03/27 10:50:56;;;;;;;;;;;23.60;33.10;;;;;;1615975;71;779;-56
2021/03/27 10:53:15;;;;;;;;;;;23.60;33.10;;;;;;1612795;71;1572;-55
2021/03/27 10:55:21;;;;;;;;;;;23.60;33.10;;;;;;1610217;72;774;-56
2021/03/27 10:57:30;;;;;;;;;;;23.50;33.10;;;;;;1607875;71;790;-54
2021/03/27 10:59:39;;;;;;;;;;;23.60;33.20;;;;;;1611410;71;1978;-56
2021/03/27 11:01:49;;;;;;;;;;;23.60;33.20;;;;;;1615640;71;1155;-55
2021/03/27 11:04:01;;;;;;;;;;;23.60;33.20;;;;;;1613666;71;1937;-57
2021/03/27 11:06:04;;;;;;;;;;;23.60;33.10;;;;;;1611034;71;805;-57
2021/03/27 11:08:10;;;;;;;;;;;23.60;33.10;;;;;;1619689;71;1682;-56
2021/03/27 11:10:23;;;;;;;;;;;23.70;33.20;;;;;;1614666;71;737;-57
2021/03/27 11:12:42;;;;;;;;;;;23.60;33.10;;;;;;1593489;73;1252;-57
2021/03/27 11:15:02;;;;;;;;;;;23.60;33.10;;;;;;1612786;71;869;-56
2021/03/27 11:17:12;;;;;;;;;;;23.60;33.10;;;;;;1607095;71;779;-54
2021/03/27 11:19:18;;;;;;;;;;;23.70;33.20;;;;;;1613374;71;737;-56
2021/03/27 11:21:38;;;;;;;;;;;23.60;33.00;;;;;;1613650;71;739;-57
2021/03/27 11:23:44;;;;;;;;;;;23.70;33.20;;;;;;1615877;71;1951;-58
2021/03/27 11:26:04;;;;;;;;;;;23.60;33.00;;;;;;1616645;71;746;-58
2021/03/27 11:28:22;;;;;;;;;;;23.70;33.20;;;;;;1621001;71;781;-58
2021/03/27 11:30:25;;;;;;;;;;;23.70;33.10;;;;;;1622009;71;763;-55
2021/03/27 11:32:29;;;;;;;;;;;23.70;33.10;;;;;;1626139;71;1137;-56
2021/03/27 11:34:44;;;;;;;;;;;23.70;33.20;;;;;;1631656;71;756;-58
2021/03/27 11:37:04;;;;;;;;;;;23.70;33.20;;;;;;1618980;71;759;-58
2021/03/27 11:39:16;;;;;;;;;;;23.70;33.20;;;;;;1621847;71;782;-58
2021/03/27 11:41:20;;;;;;;;;;;23.70;33.10;;;;;;1621872;71;715;-56
2021/03/27 11:43:26;;;;;;;;;;;23.70;33.10;;;;;;1619102;71;1945;-56
2021/03/27 11:45:33;;;;;;;;;;;23.80;33.00;;;;;;1622815;71;744;-58
2021/03/27 11:47:54;;;;;;;;;;;23.80;33.00;;;;;;1623923;71;751;-55
2021/03/27 11:50:00;;;;;;;;;;;23.80;33.00;;;;;;1617034;71;1669;-56
2021/03/27 11:52:03;;;;;;;;;;;23.70;33.10;;;;;;1626546;71;1183;-56
2021/03/27 11:54:15;;;;;;;;;;;23.70;33.20;;;;;;1624072;71;734;-54
2021/03/27 11:56:35;;;;;;;;;;;23.70;33.20;;;;;;1614477;71;1531;-58
2021/03/27 11:59:42;;;;;;;;;;;23.70;33.30;;;;;;1633023;71;712;-58
2021/03/27 12:01:02;;;;;;;;;;;23.70;33.30;;;;;;1626889;71;2155;-58
2021/03/27 12:03:11;;;;;;;;;;;23.70;33.20;;;;;;1635723;71;1932;-59
2021/03/27 12:05:15;;;;;;;;;;;23.70;33.20;;;;;;1629557;71;1205;-58
2021/03/27 12:07:18;;;;;;;;;;;23.60;33.10;;;;;;1635033;71;742;-59
2021/03/27 12:09:24;;;;;;;;;;;23.70;33.20;;;;;;1627615;71;750;-58
2021/03/27 12:11:34;;;;;;;;;;;23.70;33.30;;;;;;1623526;71;1842;-58
2021/03/27 12:13:40;;;;;;;;;;;23.60;33.20;;;;;;1617967;71;1366;-55
2021/03/27 12:15:56;;;;;;;;;;;23.70;33.50;;;;;;1629826;71;931;-56
2021/03/27 12:18:05;;;;;;;;;;;23.60;33.80;;;;;;1620687;71;1460;-58
2021/03/27 12:20:14;;;;;;;;;;;23.70;34.30;;;;;;1620428;71;765;-58
2021/03/27 12:22:24;;;;;;;;;;;23.70;34.80;;;;;;1617589;72;1168;-56
2021/03/27 12:24:27;;;;;;;;;;;23.70;34.90;;;;;;1612754;71;1223;-58
2021/03/27 12:26:33;;;;;;;;;;;23.70;35.10;;;;;;1616533;71;743;-57
2021/03/27 12:28:40;;;;;;;;;;;23.80;35.10;;;;;;1627141;71;746;-58
2021/03/27 12:30:49;;;;;;;;;;;23.80;35.20;;;;;;1635906;71;738;-58
2021/03/27 12:33:02;;;;;;;;;;;23.80;35.20;;;;;;1621904;71;1143;-58
2021/03/27 12:35:23;;;;;;;;;;;23.80;35.20;;;;;;1588166;71;1342;-58
2021/03/27 12:37:39;;;;;;;;;;;23.70;35.20;;;;;;1623770;71;755;-56
2021/03/27 12:39:59;;;;;;;;;;;23.80;35.10;;;;;;1617467;71;953;-58
2021/03/27 12:42:03;;;;;;;;;;;23.80;35.10;;;;;;1626807;71;1192;-56
2021/03/27 12:44:04;;;;;;;;;;;23.80;35.10;;;;;;1617125;71;1951;-57
2021/03/27 12:46:17;;;;;;;;;;;23.80;35.20;;;;;;1623501;71;794;-58